sensor_id;sensor_type;location;lat;lon;timestamp;temperature;humidity
76996;DHT22;65929;49.062;10.338;2023-02-23T00:00:11;6.30;82.20
76996;DHT22;65929;49.062;10.338;2023-02-23T00:01:31;6.20;82.60
76996;DHT22;65929;49.062;10.338;2023-02-23T00:02:32;6.20;82.70
76996;DHT22;65929;49.062;10.338;2023-02-23T00:03:33;6.20;83.00
76996;DHT22;65929;49.062;10.338;2023-02-23T00:04:36;6.20;83.10
76996;DHT22;65929;49.062;10.338;2023-02-23T00:05:37;6.10;83.20
76996;DHT22;65929;49.062;10.338;2023-02-23T00:06:38;6.10;83.30
76996;DHT22;65929;49.062;10.338;2023-02-23T00:07:41;6.20;83.20
76996;DHT22;65929;49.062;10.338;2023-02-23T00:08:43;6.20;83.10
76996;DHT22;65929;49.062;10.338;2023-02-23T00:09:47;6.20;83.00
76996;DHT22;65929;49.062;10.338;2023-02-23T00:10:48;6.20;83.00
76996;DHT22;65929;49.062;10.338;2023-02-23T00:11:49;6.10;83.00
76996;DHT22;65929;49.062;10.338;2023-02-23T00:12:51;6.10;83.00
76996;DHT22;65929;49.062;10.338;2023-02-23T00:13:53;6.10;83.30
76996;DHT22;65929;49.062;10.338;2023-02-23T00:14:56;6.10;83.60
76996;DHT22;65929;49.062;10.338;2023-02-23T00:16:03;6.10;84.00
76996;DHT22;65929;49.062;10.338;2023-02-23T00:17:05;6.10;84.20
76996;DHT22;65929;49.062;10.338;2023-02-23T00:18:13;6.00;84.20
76996;DHT22;65929;49.062;10.338;2023-02-23T00:19:14;6.00;84.30
76996;DHT22;65929;49.062;10.338;2023-02-23T00:20:17;6.00;84.30
76996;DHT22;65929;49.062;10.338;2023-02-23T00:21:26;6.00;84.50
76996;DHT22;65929;49.062;10.338;2023-02-23T00:22:31;6.00;84.50
76996;DHT22;65929;49.062;10.338;2023-02-23T00:23:32;6.00;84.40
76996;DHT22;65929;49.062;10.338;2023-02-23T00:24:33;6.00;84.20
76996;DHT22;65929;49.062;10.338;2023-02-23T00:25:37;6.00;84.20
76996;DHT22;65929;49.062;10.338;2023-02-23T00:26:39;6.00;83.90
76996;DHT22;65929;49.062;10.338;2023-02-23T00:27:40;6.00;83.50
76996;DHT22;65929;49.062;10.338;2023-02-23T00:28:46;6.00;83.50
76996;DHT22;65929;49.062;10.338;2023-02-23T00:29:50;5.90;83.70
76996;DHT22;65929;49.062;10.338;2023-02-23T00:30:51;5.90;83.80
76996;DHT22;65929;49.062;10.338;2023-02-23T00:31:52;5.80;84.10
76996;DHT22;65929;49.062;10.338;2023-02-23T00:32:55;5.80;84.20
76996;DHT22;65929;49.062;10.338;2023-02-23T00:33:57;5.70;84.30
76996;DHT22;65929;49.062;10.338;2023-02-23T00:34:58;5.70;84.40
76996;DHT22;65929;49.062;10.338;2023-02-23T00:36:05;5.70;84.40
76996;DHT22;65929;49.062;10.338;2023-02-23T00:37:07;5.60;84.50
76996;DHT22;65929;49.062;10.338;2023-02-23T00:38:08;5.60;84.60
76996;DHT22;65929;49.062;10.338;2023-02-23T00:39:11;5.60;84.70
76996;DHT22;65929;49.062;10.338;2023-02-23T00:40:21;5.60;85.10
76996;DHT22;65929;49.062;10.338;2023-02-23T00:41:23;5.60;85.70
76996;DHT22;65929;49.062;10.338;2023-02-23T00:42:30;5.70;86.10
76996;DHT22;65929;49.062;10.338;2023-02-23T00:43:33;5.70;86.30
76996;DHT22;65929;49.062;10.338;2023-02-23T00:44:34;5.70;86.20
76996;DHT22;65929;49.062;10.338;2023-02-23T00:45:36;5.80;86.10
76996;DHT22;65929;49.062;10.338;2023-02-23T00:46:37;5.80;86.00
76996;DHT22;65929;49.062;10.338;2023-02-23T00:47:39;5.90;85.80
76996;DHT22;65929;49.062;10.338;2023-02-23T00:48:42;5.90;85.70
76996;DHT22;65929;49.062;10.338;2023-02-23T00:49:43;5.90;85.40
76996;DHT22;65929;49.062;10.338;2023-02-23T00:50:44;5.90;85.20
76996;DHT22;65929;49.062;10.338;2023-02-23T00:51:47;5.80;85.20
76996;DHT22;65929;49.062;10.338;2023-02-23T00:52:47;5.80;85.40
76996;DHT22;65929;49.062;10.338;2023-02-23T00:53:52;5.80;85.40
76996;DHT22;65929;49.062;10.338;2023-02-23T00:54:53;5.70;85.50
76996;DHT22;65929;49.062;10.338;2023-02-23T00:55:55;5.70;85.70
76996;DHT22;65929;49.062;10.338;2023-02-23T00:56:56;5.70;85.70
76996;DHT22;65929;49.062;10.338;2023-02-23T00:57:57;5.70;85.80
76996;DHT22;65929;49.062;10.338;2023-02-23T00:58:58;5.70;85.80
76996;DHT22;65929;49.062;10.338;2023-02-23T00:59:59;5.70;86.00
76996;DHT22;65929;49.062;10.338;2023-02-23T01:01:00;5.70;85.90
76996;DHT22;65929;49.062;10.338;2023-02-23T01:02:01;5.70;85.80
76996;DHT22;65929;49.062;10.338;2023-02-23T01:03:02;5.70;85.80
76996;DHT22;65929;49.062;10.338;2023-02-23T01:04:03;5.70;86.20
76996;DHT22;65929;49.062;10.338;2023-02-23T01:05:05;5.60;86.20
76996;DHT22;65929;49.062;10.338;2023-02-23T01:06:08;5.60;86.00
76996;DHT22;65929;49.062;10.338;2023-02-23T01:07:11;5.60;85.80
76996;DHT22;65929;49.062;10.338;2023-02-23T01:08:16;5.60;85.80
76996;DHT22;65929;49.062;10.338;2023-02-23T01:09:17;5.60;85.90
76996;DHT22;65929;49.062;10.338;2023-02-23T01:10:28;5.60;86.00
76996;DHT22;65929;49.062;10.338;2023-02-23T01:11:29;5.50;86.10
76996;DHT22;65929;49.062;10.338;2023-02-23T01:12:35;5.50;86.10
76996;DHT22;65929;49.062;10.338;2023-02-23T01:13:37;5.50;86.10
76996;DHT22;65929;49.062;10.338;2023-02-23T01:14:38;5.50;86.20
76996;DHT22;65929;49.062;10.338;2023-02-23T01:15:43;5.50;86.40
76996;DHT22;65929;49.062;10.338;2023-02-23T01:16:44;5.50;86.50
76996;DHT22;65929;49.062;10.338;2023-02-23T01:17:45;5.50;86.60
76996;DHT22;65929;49.062;10.338;2023-02-23T01:18:47;5.50;86.60
76996;DHT22;65929;49.062;10.338;2023-02-23T01:19:48;5.40;86.60
76996;DHT22;65929;49.062;10.338;2023-02-23T01:20:49;5.30;86.70
76996;DHT22;65929;49.062;10.338;2023-02-23T01:21:50;5.30;86.80
76996;DHT22;65929;49.062;10.338;2023-02-23T01:22:52;5.30;86.70
76996;DHT22;65929;49.062;10.338;2023-02-23T01:24:02;5.30;87.00
76996;DHT22;65929;49.062;10.338;2023-02-23T01:25:04;5.30;87.70
76996;DHT22;65929;49.062;10.338;2023-02-23T01:26:36;5.30;87.60
76996;DHT22;65929;49.062;10.338;2023-02-23T01:27:56;5.30;87.80
76996;DHT22;65929;49.062;10.338;2023-02-23T01:28:59;5.30;87.90
76996;DHT22;65929;49.062;10.338;2023-02-23T01:30:00;5.30;87.60
76996;DHT22;65929;49.062;10.338;2023-02-23T01:31:01;5.30;87.50
76996;DHT22;65929;49.062;10.338;2023-02-23T01:32:10;5.30;87.50
76996;DHT22;65929;49.062;10.338;2023-02-23T01:33:11;5.30;87.40
76996;DHT22;65929;49.062;10.338;2023-02-23T01:34:14;5.30;87.50
76996;DHT22;65929;49.062;10.338;2023-02-23T01:35:15;5.30;87.90
76996;DHT22;65929;49.062;10.338;2023-02-23T01:36:15;5.30;88.10
76996;DHT22;65929;49.062;10.338;2023-02-23T01:37:21;5.30;88.20
76996;DHT22;65929;49.062;10.338;2023-02-23T01:38:23;5.30;88.30
76996;DHT22;65929;49.062;10.338;2023-02-23T01:39:24;5.30;88.50
76996;DHT22;65929;49.062;10.338;2023-02-23T01:40:26;5.30;88.60
76996;DHT22;65929;49.062;10.338;2023-02-23T01:41:38;5.30;88.50
76996;DHT22;65929;49.062;10.338;2023-02-23T01:42:43;5.30;88.00
76996;DHT22;65929;49.062;10.338;2023-02-23T01:44:00;5.30;87.80
76996;DHT22;65929;49.062;10.338;2023-02-23T01:45:29;5.30;87.80
76996;DHT22;65929;49.062;10.338;2023-02-23T01:46:31;5.30;87.60
76996;DHT22;65929;49.062;10.338;2023-02-23T01:47:32;5.30;87.30
76996;DHT22;65929;49.062;10.338;2023-02-23T01:48:37;5.20;87.20
76996;DHT22;65929;49.062;10.338;2023-02-23T01:49:51;5.10;87.40
76996;DHT22;65929;49.062;10.338;2023-02-23T01:50:58;5.10;87.80
76996;DHT22;65929;49.062;10.338;2023-02-23T01:52:03;5.10;87.90
76996;DHT22;65929;49.062;10.338;2023-02-23T01:53:05;5.20;88.00
76996;DHT22;65929;49.062;10.338;2023-02-23T01:54:10;5.30;88.10
76996;DHT22;65929;49.062;10.338;2023-02-23T01:55:14;5.20;87.90
76996;DHT22;65929;49.062;10.338;2023-02-23T01:56:28;5.30;88.00
76996;DHT22;65929;49.062;10.338;2023-02-23T01:57:29;5.30;87.90
76996;DHT22;65929;49.062;10.338;2023-02-23T01:58:33;5.30;88.00
76996;DHT22;65929;49.062;10.338;2023-02-23T01:59:37;5.30;88.20
76996;DHT22;65929;49.062;10.338;2023-02-23T02:00:40;5.30;88.20
76996;DHT22;65929;49.062;10.338;2023-02-23T02:01:42;5.20;88.00
76996;DHT22;65929;49.062;10.338;2023-02-23T02:02:43;5.20;87.90
76996;DHT22;65929;49.062;10.338;2023-02-23T02:03:47;5.10;88.00
76996;DHT22;65929;49.062;10.338;2023-02-23T02:04:52;5.10;88.20
76996;DHT22;65929;49.062;10.338;2023-02-23T02:05:55;5.10;88.20
76996;DHT22;65929;49.062;10.338;2023-02-23T02:06:57;5.10;88.40
76996;DHT22;65929;49.062;10.338;2023-02-23T02:08:01;5.10;88.50
76996;DHT22;65929;49.062;10.338;2023-02-23T02:09:04;5.10;88.40
76996;DHT22;65929;49.062;10.338;2023-02-23T02:10:09;5.00;88.40
76996;DHT22;65929;49.062;10.338;2023-02-23T02:11:14;5.00;88.40
76996;DHT22;65929;49.062;10.338;2023-02-23T02:12:30;5.00;88.50
76996;DHT22;65929;49.062;10.338;2023-02-23T02:13:31;5.00;88.70
76996;DHT22;65929;49.062;10.338;2023-02-23T02:14:32;5.00;88.70
76996;DHT22;65929;49.062;10.338;2023-02-23T02:15:39;5.00;88.60
76996;DHT22;65929;49.062;10.338;2023-02-23T02:17:10;4.90;88.50
76996;DHT22;65929;49.062;10.338;2023-02-23T02:18:19;4.90;88.60
76996;DHT22;65929;49.062;10.338;2023-02-23T02:21:41;4.80;89.10
76996;DHT22;65929;49.062;10.338;2023-02-23T02:23:08;4.70;89.40
76996;DHT22;65929;49.062;10.338;2023-02-23T02:26:12;4.70;89.60
76996;DHT22;65929;49.062;10.338;2023-02-23T02:27:29;4.70;89.30
76996;DHT22;65929;49.062;10.338;2023-02-23T02:28:47;4.70;88.90
76996;DHT22;65929;49.062;10.338;2023-02-23T02:31:56;4.60;88.90
76996;DHT22;65929;49.062;10.338;2023-02-23T02:33:23;4.50;88.60
76996;DHT22;65929;49.062;10.338;2023-02-23T02:34:56;4.50;88.60
76996;DHT22;65929;49.062;10.338;2023-02-23T02:36:25;4.50;89.10
76996;DHT22;65929;49.062;10.338;2023-02-23T02:38:54;4.40;89.20
76996;DHT22;65929;49.062;10.338;2023-02-23T02:40:05;4.30;89.20
76996;DHT22;65929;49.062;10.338;2023-02-23T02:41:22;4.30;89.40
76996;DHT22;65929;49.062;10.338;2023-02-23T02:42:29;4.30;89.60
76996;DHT22;65929;49.062;10.338;2023-02-23T02:43:37;4.30;89.80
76996;DHT22;65929;49.062;10.338;2023-02-23T02:44:49;4.30;89.90
76996;DHT22;65929;49.062;10.338;2023-02-23T02:45:55;4.30;90.00
76996;DHT22;65929;49.062;10.338;2023-02-23T02:47:00;4.30;90.10
76996;DHT22;65929;49.062;10.338;2023-02-23T02:48:05;4.30;90.30
76996;DHT22;65929;49.062;10.338;2023-02-23T02:49:14;4.30;90.40
76996;DHT22;65929;49.062;10.338;2023-02-23T02:50:26;4.30;90.40
76996;DHT22;65929;49.062;10.338;2023-02-23T02:51:35;4.30;90.60
76996;DHT22;65929;49.062;10.338;2023-02-23T02:52:44;4.30;90.50
76996;DHT22;65929;49.062;10.338;2023-02-23T02:53:50;4.30;90.50
76996;DHT22;65929;49.062;10.338;2023-02-23T02:54:57;4.20;90.40
76996;DHT22;65929;49.062;10.338;2023-02-23T02:56:02;4.20;90.40
76996;DHT22;65929;49.062;10.338;2023-02-23T02:58:14;4.20;90.30
76996;DHT22;65929;49.062;10.338;2023-02-23T02:59:19;4.30;90.40
76996;DHT22;65929;49.062;10.338;2023-02-23T03:00:39;4.30;90.90
76996;DHT22;65929;49.062;10.338;2023-02-23T03:02:00;4.30;91.00
76996;DHT22;65929;49.062;10.338;2023-02-23T03:03:31;4.40;90.90
76996;DHT22;65929;49.062;10.338;2023-02-23T03:04:51;4.40;90.70
76996;DHT22;65929;49.062;10.338;2023-02-23T03:06:10;4.40;90.50
76996;DHT22;65929;49.062;10.338;2023-02-23T03:07:34;4.40;90.10
76996;DHT22;65929;49.062;10.338;2023-02-23T03:09:00;4.40;90.10
76996;DHT22;65929;49.062;10.338;2023-02-23T03:10:30;4.40;90.00
76996;DHT22;65929;49.062;10.338;2023-02-23T03:11:54;4.40;90.10
76996;DHT22;65929;49.062;10.338;2023-02-23T03:13:19;4.50;90.20
76996;DHT22;65929;49.062;10.338;2023-02-23T03:14:48;4.50;90.00
76996;DHT22;65929;49.062;10.338;2023-02-23T03:16:22;4.50;89.80
76996;DHT22;65929;49.062;10.338;2023-02-23T03:17:45;4.50;89.50
76996;DHT22;65929;49.062;10.338;2023-02-23T03:19:12;4.40;89.20
76996;DHT22;65929;49.062;10.338;2023-02-23T03:20:41;4.40;89.10
76996;DHT22;65929;49.062;10.338;2023-02-23T03:22:09;4.40;89.10
76996;DHT22;65929;49.062;10.338;2023-02-23T03:23:40;4.30;89.10
76996;DHT22;65929;49.062;10.338;2023-02-23T03:25:08;4.20;89.10
76996;DHT22;65929;49.062;10.338;2023-02-23T03:26:31;4.20;89.20
76996;DHT22;65929;49.062;10.338;2023-02-23T03:27:59;4.20;89.70
76996;DHT22;65929;49.062;10.338;2023-02-23T03:29:28;4.20;89.90
76996;DHT22;65929;49.062;10.338;2023-02-23T03:30:53;4.20;90.10
76996;DHT22;65929;49.062;10.338;2023-02-23T03:32:23;4.20;90.20
76996;DHT22;65929;49.062;10.338;2023-02-23T03:33:47;4.30;90.40
76996;DHT22;65929;49.062;10.338;2023-02-23T03:35:13;4.30;90.50
76996;DHT22;65929;49.062;10.338;2023-02-23T03:36:37;4.30;90.60
76996;DHT22;65929;49.062;10.338;2023-02-23T03:38:02;4.30;90.40
76996;DHT22;65929;49.062;10.338;2023-02-23T03:39:27;4.40;90.40
76996;DHT22;65929;49.062;10.338;2023-02-23T03:40:51;4.40;90.30
76996;DHT22;65929;49.062;10.338;2023-02-23T03:42:15;4.40;90.20
76996;DHT22;65929;49.062;10.338;2023-02-23T03:43:38;4.40;90.00
76996;DHT22;65929;49.062;10.338;2023-02-23T03:45:04;4.40;89.90
76996;DHT22;65929;49.062;10.338;2023-02-23T03:46:26;4.50;89.70
76996;DHT22;65929;49.062;10.338;2023-02-23T03:47:48;4.50;89.70
76996;DHT22;65929;49.062;10.338;2023-02-23T03:49:10;4.50;89.50
76996;DHT22;65929;49.062;10.338;2023-02-23T03:50:35;4.50;89.10
76996;DHT22;65929;49.062;10.338;2023-02-23T03:52:00;4.50;88.90
76996;DHT22;65929;49.062;10.338;2023-02-23T03:53:28;4.50;88.80
76996;DHT22;65929;49.062;10.338;2023-02-23T03:54:51;4.40;89.00
76996;DHT22;65929;49.062;10.338;2023-02-23T03:56:14;4.40;89.00
76996;DHT22;65929;49.062;10.338;2023-02-23T03:57:37;4.40;89.00
76996;DHT22;65929;49.062;10.338;2023-02-23T03:59:00;4.40;89.00
76996;DHT22;65929;49.062;10.338;2023-02-23T04:00:26;4.40;89.20
76996;DHT22;65929;49.062;10.338;2023-02-23T04:01:47;4.40;89.20
76996;DHT22;65929;49.062;10.338;2023-02-23T04:03:10;4.40;89.20
76996;DHT22;65929;49.062;10.338;2023-02-23T04:04:32;4.40;89.50
76996;DHT22;65929;49.062;10.338;2023-02-23T04:05:53;4.40;89.70
76996;DHT22;65929;49.062;10.338;2023-02-23T04:07:16;4.40;89.90
76996;DHT22;65929;49.062;10.338;2023-02-23T04:08:37;4.40;90.10
76996;DHT22;65929;49.062;10.338;2023-02-23T04:09:57;4.50;90.10
76996;DHT22;65929;49.062;10.338;2023-02-23T04:11:23;4.50;90.20
76996;DHT22;65929;49.062;10.338;2023-02-23T04:12:50;4.50;90.30
76996;DHT22;65929;49.062;10.338;2023-02-23T04:14:16;4.50;90.30
76996;DHT22;65929;49.062;10.338;2023-02-23T04:15:22;4.50;90.30
76996;DHT22;65929;49.062;10.338;2023-02-23T04:16:24;4.50;90.20
76996;DHT22;65929;49.062;10.338;2023-02-23T04:17:27;4.60;90.20
76996;DHT22;65929;49.062;10.338;2023-02-23T04:18:31;4.60;90.00
76996;DHT22;65929;49.062;10.338;2023-02-23T04:19:32;4.60;89.90
76996;DHT22;65929;49.062;10.338;2023-02-23T04:20:33;4.70;89.90
76996;DHT22;65929;49.062;10.338;2023-02-23T04:21:34;4.70;89.90
76996;DHT22;65929;49.062;10.338;2023-02-23T04:22:35;4.70;89.90
76996;DHT22;65929;49.062;10.338;2023-02-23T04:23:37;4.70;90.00
76996;DHT22;65929;49.062;10.338;2023-02-23T04:24:40;4.70;89.90
76996;DHT22;65929;49.062;10.338;2023-02-23T04:25:41;4.70;90.00
76996;DHT22;65929;49.062;10.338;2023-02-23T04:26:43;4.70;90.00
76996;DHT22;65929;49.062;10.338;2023-02-23T04:27:44;4.80;90.00
76996;DHT22;65929;49.062;10.338;2023-02-23T04:28:45;4.80;90.10
76996;DHT22;65929;49.062;10.338;2023-02-23T04:29:46;4.90;90.00
76996;DHT22;65929;49.062;10.338;2023-02-23T04:30:47;4.90;90.10
76996;DHT22;65929;49.062;10.338;2023-02-23T04:31:48;4.90;90.10
76996;DHT22;65929;49.062;10.338;2023-02-23T04:32:49;5.00;90.10
76996;DHT22;65929;49.062;10.338;2023-02-23T04:33:52;5.00;90.10
76996;DHT22;65929;49.062;10.338;2023-02-23T04:34:53;5.00;90.10
76996;DHT22;65929;49.062;10.338;2023-02-23T04:35:54;5.00;90.20
76996;DHT22;65929;49.062;10.338;2023-02-23T04:36:55;5.00;90.20
76996;DHT22;65929;49.062;10.338;2023-02-23T04:37:57;5.00;90.10
76996;DHT22;65929;49.062;10.338;2023-02-23T04:38:58;5.00;90.10
76996;DHT22;65929;49.062;10.338;2023-02-23T04:39:59;5.00;89.90
76996;DHT22;65929;49.062;10.338;2023-02-23T04:41:01;5.00;89.90
76996;DHT22;65929;49.062;10.338;2023-02-23T04:42:03;5.00;89.80
76996;DHT22;65929;49.062;10.338;2023-02-23T04:43:04;5.00;89.80
76996;DHT22;65929;49.062;10.338;2023-02-23T04:44:05;5.00;90.00
76996;DHT22;65929;49.062;10.338;2023-02-23T04:45:07;5.00;90.00
76996;DHT22;65929;49.062;10.338;2023-02-23T04:46:08;5.00;90.20
76996;DHT22;65929;49.062;10.338;2023-02-23T04:47:09;5.00;90.20
76996;DHT22;65929;49.062;10.338;2023-02-23T04:48:10;5.00;90.30
76996;DHT22;65929;49.062;10.338;2023-02-23T04:49:11;5.00;90.40
76996;DHT22;65929;49.062;10.338;2023-02-23T04:50:13;5.00;90.40
76996;DHT22;65929;49.062;10.338;2023-02-23T04:51:14;5.00;90.30
76996;DHT22;65929;49.062;10.338;2023-02-23T04:52:15;5.00;90.20
76996;DHT22;65929;49.062;10.338;2023-02-23T04:53:16;5.00;90.40
76996;DHT22;65929;49.062;10.338;2023-02-23T04:54:17;5.00;90.40
76996;DHT22;65929;49.062;10.338;2023-02-23T04:55:20;5.00;90.50
76996;DHT22;65929;49.062;10.338;2023-02-23T04:56:21;5.00;90.70
76996;DHT22;65929;49.062;10.338;2023-02-23T04:57:23;5.00;90.80
76996;DHT22;65929;49.062;10.338;2023-02-23T04:58:25;5.10;90.80
76996;DHT22;65929;49.062;10.338;2023-02-23T04:59:26;5.10;90.80
76996;DHT22;65929;49.062;10.338;2023-02-23T05:00:28;5.10;90.70
76996;DHT22;65929;49.062;10.338;2023-02-23T05:01:30;5.10;90.70
76996;DHT22;65929;49.062;10.338;2023-02-23T05:02:32;5.10;90.70
76996;DHT22;65929;49.062;10.338;2023-02-23T05:03:33;5.10;90.50
76996;DHT22;65929;49.062;10.338;2023-02-23T05:04:34;5.10;90.50
76996;DHT22;65929;49.062;10.338;2023-02-23T05:05:35;5.10;90.40
76996;DHT22;65929;49.062;10.338;2023-02-23T05:06:36;5.10;90.40
76996;DHT22;65929;49.062;10.338;2023-02-23T05:07:38;5.10;90.40
76996;DHT22;65929;49.062;10.338;2023-02-23T05:08:39;5.10;90.40
76996;DHT22;65929;49.062;10.338;2023-02-23T05:09:40;5.10;90.40
76996;DHT22;65929;49.062;10.338;2023-02-23T05:10:41;5.10;90.40
76996;DHT22;65929;49.062;10.338;2023-02-23T05:11:42;5.10;90.60
76996;DHT22;65929;49.062;10.338;2023-02-23T05:12:44;5.10;90.80
76996;DHT22;65929;49.062;10.338;2023-02-23T05:13:46;5.10;90.80
76996;DHT22;65929;49.062;10.338;2023-02-23T05:14:47;5.00;90.90
76996;DHT22;65929;49.062;10.338;2023-02-23T05:15:48;5.10;90.70
76996;DHT22;65929;49.062;10.338;2023-02-23T05:16:49;5.10;90.80
76996;DHT22;65929;49.062;10.338;2023-02-23T05:17:50;5.10;91.10
76996;DHT22;65929;49.062;10.338;2023-02-23T05:18:51;5.10;91.20
76996;DHT22;65929;49.062;10.338;2023-02-23T05:19:53;5.10;91.40
76996;DHT22;65929;49.062;10.338;2023-02-23T05:21:00;5.10;91.50
76996;DHT22;65929;49.062;10.338;2023-02-23T05:22:02;5.20;91.60
76996;DHT22;65929;49.062;10.338;2023-02-23T05:23:03;5.20;91.70
76996;DHT22;65929;49.062;10.338;2023-02-23T05:24:05;5.20;91.60
76996;DHT22;65929;49.062;10.338;2023-02-23T05:25:07;5.20;91.60
76996;DHT22;65929;49.062;10.338;2023-02-23T05:26:11;5.30;91.60
76996;DHT22;65929;49.062;10.338;2023-02-23T05:27:13;5.30;91.60
76996;DHT22;65929;49.062;10.338;2023-02-23T05:28:16;5.30;91.50
76996;DHT22;65929;49.062;10.338;2023-02-23T05:29:17;5.30;91.50
76996;DHT22;65929;49.062;10.338;2023-02-23T05:30:18;5.30;91.50
76996;DHT22;65929;49.062;10.338;2023-02-23T05:31:19;5.30;91.40
76996;DHT22;65929;49.062;10.338;2023-02-23T05:32:20;5.30;91.40
76996;DHT22;65929;49.062;10.338;2023-02-23T05:33:21;5.30;91.40
76996;DHT22;65929;49.062;10.338;2023-02-23T05:34:22;5.30;91.40
76996;DHT22;65929;49.062;10.338;2023-02-23T05:35:23;5.30;91.50
76996;DHT22;65929;49.062;10.338;2023-02-23T05:36:24;5.20;91.60
76996;DHT22;65929;49.062;10.338;2023-02-23T05:37:25;5.30;91.70
76996;DHT22;65929;49.062;10.338;2023-02-23T05:38:26;5.20;91.70
76996;DHT22;65929;49.062;10.338;2023-02-23T05:39:27;5.20;91.80
76996;DHT22;65929;49.062;10.338;2023-02-23T05:40:28;5.20;91.80
76996;DHT22;65929;49.062;10.338;2023-02-23T05:41:29;5.10;91.90
76996;DHT22;65929;49.062;10.338;2023-02-23T05:42:30;5.20;91.90
76996;DHT22;65929;49.062;10.338;2023-02-23T05:43:33;5.10;91.90
76996;DHT22;65929;49.062;10.338;2023-02-23T05:44:34;5.10;92.00
76996;DHT22;65929;49.062;10.338;2023-02-23T05:45:39;5.10;92.00
76996;DHT22;65929;49.062;10.338;2023-02-23T05:46:41;5.10;92.20
76996;DHT22;65929;49.062;10.338;2023-02-23T05:47:41;5.10;92.20
76996;DHT22;65929;49.062;10.338;2023-02-23T05:48:42;5.10;92.20
76996;DHT22;65929;49.062;10.338;2023-02-23T05:49:43;5.10;92.30
76996;DHT22;65929;49.062;10.338;2023-02-23T05:50:45;5.10;92.30
76996;DHT22;65929;49.062;10.338;2023-02-23T05:51:46;5.10;92.30
76996;DHT22;65929;49.062;10.338;2023-02-23T05:52:47;5.10;92.20
76996;DHT22;65929;49.062;10.338;2023-02-23T05:53:48;5.10;92.00
76996;DHT22;65929;49.062;10.338;2023-02-23T05:54:49;5.10;91.90
76996;DHT22;65929;49.062;10.338;2023-02-23T05:55:50;5.10;91.90
76996;DHT22;65929;49.062;10.338;2023-02-23T05:56:51;5.10;91.80
76996;DHT22;65929;49.062;10.338;2023-02-23T05:57:52;5.10;91.80
76996;DHT22;65929;49.062;10.338;2023-02-23T05:58:55;5.10;91.70
76996;DHT22;65929;49.062;10.338;2023-02-23T05:59:57;5.10;91.70
76996;DHT22;65929;49.062;10.338;2023-02-23T06:00:59;5.10;91.90
76996;DHT22;65929;49.062;10.338;2023-02-23T06:02:00;5.10;92.00
76996;DHT22;65929;49.062;10.338;2023-02-23T06:03:02;5.10;92.10
76996;DHT22;65929;49.062;10.338;2023-02-23T06:04:03;5.10;92.20
76996;DHT22;65929;49.062;10.338;2023-02-23T06:05:05;5.10;92.50
76996;DHT22;65929;49.062;10.338;2023-02-23T06:06:06;5.10;92.50
76996;DHT22;65929;49.062;10.338;2023-02-23T06:07:07;5.10;92.60
76996;DHT22;65929;49.062;10.338;2023-02-23T06:08:08;5.20;92.60
76996;DHT22;65929;49.062;10.338;2023-02-23T06:09:09;5.20;92.70
76996;DHT22;65929;49.062;10.338;2023-02-23T06:10:11;5.20;92.60
76996;DHT22;65929;49.062;10.338;2023-02-23T06:11:12;5.20;92.50
76996;DHT22;65929;49.062;10.338;2023-02-23T06:12:13;5.30;92.50
76996;DHT22;65929;49.062;10.338;2023-02-23T06:13:14;5.30;92.50
76996;DHT22;65929;49.062;10.338;2023-02-23T06:14:17;5.30;92.50
76996;DHT22;65929;49.062;10.338;2023-02-23T06:15:18;5.20;92.40
76996;DHT22;65929;49.062;10.338;2023-02-23T06:16:19;5.20;92.30
76996;DHT22;65929;49.062;10.338;2023-02-23T06:17:20;5.20;92.30
76996;DHT22;65929;49.062;10.338;2023-02-23T06:18:21;5.30;92.50
76996;DHT22;65929;49.062;10.338;2023-02-23T06:19:22;5.30;92.50
76996;DHT22;65929;49.062;10.338;2023-02-23T06:20:23;5.30;92.50
76996;DHT22;65929;49.062;10.338;2023-02-23T06:21:24;5.30;92.60
76996;DHT22;65929;49.062;10.338;2023-02-23T06:22:25;5.30;92.60
76996;DHT22;65929;49.062;10.338;2023-02-23T06:23:26;5.30;92.50
76996;DHT22;65929;49.062;10.338;2023-02-23T06:24:27;5.30;92.50
76996;DHT22;65929;49.062;10.338;2023-02-23T06:25:28;5.40;92.50
76996;DHT22;65929;49.062;10.338;2023-02-23T06:26:29;5.40;92.40
76996;DHT22;65929;49.062;10.338;2023-02-23T06:27:30;5.40;92.50
76996;DHT22;65929;49.062;10.338;2023-02-23T06:28:31;5.40;92.40
76996;DHT22;65929;49.062;10.338;2023-02-23T06:29:34;5.40;92.40
76996;DHT22;65929;49.062;10.338;2023-02-23T06:30:37;5.40;92.40
76996;DHT22;65929;49.062;10.338;2023-02-23T06:31:38;5.40;92.40
76996;DHT22;65929;49.062;10.338;2023-02-23T06:32:40;5.50;92.40
76996;DHT22;65929;49.062;10.338;2023-02-23T06:33:41;5.50;92.40
76996;DHT22;65929;49.062;10.338;2023-02-23T06:34:42;5.50;92.40
76996;DHT22;65929;49.062;10.338;2023-02-23T06:35:44;5.50;92.40
76996;DHT22;65929;49.062;10.338;2023-02-23T06:36:46;5.50;92.40
76996;DHT22;65929;49.062;10.338;2023-02-23T06:37:46;5.50;92.30
76996;DHT22;65929;49.062;10.338;2023-02-23T06:38:47;5.50;92.20
76996;DHT22;65929;49.062;10.338;2023-02-23T06:39:49;5.60;92.10
76996;DHT22;65929;49.062;10.338;2023-02-23T06:40:50;5.60;92.00
76996;DHT22;65929;49.062;10.338;2023-02-23T06:41:51;5.60;92.10
76996;DHT22;65929;49.062;10.338;2023-02-23T06:42:52;5.60;92.00
76996;DHT22;65929;49.062;10.338;2023-02-23T06:43:53;5.60;92.00
76996;DHT22;65929;49.062;10.338;2023-02-23T06:44:55;5.60;91.90
76996;DHT22;65929;49.062;10.338;2023-02-23T06:45:56;5.60;91.90
76996;DHT22;65929;49.062;10.338;2023-02-23T06:46:57;5.60;91.90
76996;DHT22;65929;49.062;10.338;2023-02-23T06:47:58;5.60;91.90
76996;DHT22;65929;49.062;10.338;2023-02-23T06:48:59;5.70;92.00
76996;DHT22;65929;49.062;10.338;2023-02-23T06:50:00;5.70;92.00
76996;DHT22;65929;49.062;10.338;2023-02-23T06:51:03;5.70;91.90
76996;DHT22;65929;49.062;10.338;2023-02-23T06:52:04;5.70;91.90
76996;DHT22;65929;49.062;10.338;2023-02-23T06:53:05;5.70;91.90
76996;DHT22;65929;49.062;10.338;2023-02-23T06:54:06;5.80;91.80
76996;DHT22;65929;49.062;10.338;2023-02-23T06:55:08;5.80;91.80
76996;DHT22;65929;49.062;10.338;2023-02-23T06:56:09;5.80;91.80
76996;DHT22;65929;49.062;10.338;2023-02-23T06:57:10;5.80;91.70
76996;DHT22;65929;49.062;10.338;2023-02-23T06:58:11;5.80;91.60
76996;DHT22;65929;49.062;10.338;2023-02-23T06:59:12;5.90;91.50
76996;DHT22;65929;49.062;10.338;2023-02-23T07:00:15;5.90;91.50
76996;DHT22;65929;49.062;10.338;2023-02-23T07:01:17;5.90;91.40
76996;DHT22;65929;49.062;10.338;2023-02-23T07:02:19;5.90;91.30
76996;DHT22;65929;49.062;10.338;2023-02-23T07:03:19;5.90;91.30
76996;DHT22;65929;49.062;10.338;2023-02-23T07:04:21;5.90;91.30
76996;DHT22;65929;49.062;10.338;2023-02-23T07:05:21;6.00;91.30
76996;DHT22;65929;49.062;10.338;2023-02-23T07:06:22;6.00;91.30
76996;DHT22;65929;49.062;10.338;2023-02-23T07:07:24;6.00;91.30